Flight Track Log - Related Links

Times and Time Zones

All times are in EST time to prevent confusion due to time zone crossing. See the AAL1410 flight status page for this flight to view local times or setup timezone preferences in your user account.

Time Position Orientation Groundspeed Altitude Reporting Facility
EST Latitude Longitude Course Direction KTS MPH feet Rate Location/Type
Tue 04:13:34 PM 40.7667 -73.8500 201° Southwest 150 173 1,100  Level New York TRACON
Tue 04:14:33 PM 40.7833 -73.7833 72° East 225 259 3,100 2,385 Climbing New York TRACON
Tue 04:15:00 PM 40.5800 -73.9751 202° Southwest  Level Estimated
Tue 04:16:00 PM 40.4814 -74.0262 201° Southwest  Level Estimated
Tue 04:16:15 PM 40.8694 -73.7731 North 218 251 7,500  Level New York Center
Tue 04:17:00 PM 40.3827 -74.0770 201° Southwest  Level Estimated
Tue 04:17:14 PM 40.8222 -73.8286 222° Southwest 145 167 8,000  Level New York Center
Tue 04:18:00 PM 40.2840 -74.1278 201° Southwest  Level Estimated
Tue 04:18:14 PM 40.7475 -73.8089 169° South 230 265 11,200  Level New York Center
Tue 04:19:00 PM 40.1853 -74.1784 201° Southwest  Level Estimated
Tue 04:19:14 PM 40.6669 -73.7861 168° South 304 350 11,900  Level New York Center
Tue 04:20:14 PM 40.5728 -73.7192 152° Southeast 347 399 12,800 1,700 Climbing New York Center
Tue 04:21:14 PM 40.4894 -73.6364 143° Southeast 375 432 15,300 1,600 Climbing New York Center
Tue 04:22:14 PM 40.4100 -73.5594 144° Southeast 398 458 16,000 850 Climbing New York Center
Tue 04:23:14 PM 40.3069 -73.5144 162° South 380 437 17,000 1,450 Climbing New York Center
Tue 04:24:14 PM 40.2111 -73.5161 181° South 370 426 18,900 1,702 Climbing New York Center
Tue 04:26:42 PM 39.9744 -73.6206 199° South 372 428 22,900 1,165 Climbing Washington Center
Tue 04:27:40 PM 39.8900 -73.6797 208° Southwest 361 415 22,900 51 Level Washington Center
Tue 04:28:40 PM 39.8053 -73.7386 208° Southwest 355 409 23,000 992 Climbing Washington Center
Tue 04:29:41 PM 39.7231 -73.8003 210° Southwest 343 395 24,900 1,686 Climbing Washington Center
Tue 04:30:41 PM 39.6383 -73.8617 209° Southwest 343 395 26,400 1,537 Climbing Washington Center
Tue 04:31:42 PM 39.5497 -73.9311 211° Southwest 355 409 28,000 807 Climbing Washington Center
Tue 04:32:40 PM 39.4592 -74.0003 211° Southwest 368 423 28,000  Level Washington Center
Tue 04:33:40 PM 39.3683 -74.0667 209° Southwest 380 437 28,000  Level Washington Center
Tue 04:34:41 PM 39.2794 -74.1356 211° Southwest 380 437 28,000  Level Washington Center
Tue 04:35:42 PM 39.1908 -74.2044 211° Southwest 380 437 28,000 -50 Level Washington Center
Tue 04:36:40 PM 39.1039 -74.2703 210° Southwest 380 437 27,900  Descending Washington Center
Tue 04:37:41 PM 39.0169 -74.3358 210° Southwest 380 437 28,000 50 Climbing Washington Center
Tue 04:38:41 PM 38.9303 -74.4014 210° Southwest 375 432 28,000  Level Washington Center
Tue 04:39:42 PM 38.8411 -74.4669 210° Southwest 375 432 28,000  Level Washington Center
Tue 04:40:42 PM 38.7439 -74.5431 211° Southwest 375 432 28,000  Level Washington Center
Tue 04:41:40 PM 38.6547 -74.6081 210° Southwest 375 432 28,000 -51 Level Washington Center
Tue 04:42:40 PM 38.5636 -74.6731 209° Southwest 375 432 27,900  Descending Washington Center
Tue 04:43:40 PM 38.4725 -74.7406 210° Southwest 375 432 28,000 50 Climbing Washington Center
Tue 04:44:41 PM 38.3833 -74.8131 213° Southwest 375 432 28,000  Level Washington Center
Tue 04:45:42 PM 38.3022 -74.8719 210° Southwest 380 437 28,000 -49 Level Washington Center
Tue 04:46:43 PM 38.2108 -74.9392 210° Southwest 380 437 27,900  Descending Washington Center
Tue 04:47:40 PM 38.1153 -75.0006 207° Southwest 385 443 28,000  Climbing Washington Center
Tue 04:48:41 PM 38.0239 -75.0697 211° Southwest 385 443 27,900 -49 Descending Washington Center
Tue 04:49:42 PM 37.9325 -75.1389 211° Southwest 385 443 27,900  Level Washington Center
Tue 04:50:40 PM 37.8389 -75.2078 210° Southwest 385 443 27,900 50 Level Washington Center
Tue 04:51:41 PM 37.7472 -75.2767 211° Southwest 390 449 28,000  Climbing Washington Center
Tue 04:52:42 PM 37.6514 -75.3425 209° Southwest 390 449 27,900 -50 Descending Washington Center
Tue 04:53:41 PM 37.5578 -75.4083 209° Southwest 390 449 27,900  Level Washington Center
Tue 04:54:42 PM 37.4661 -75.4742 210° Southwest 390 449 27,900 50 Level Washington Center
Tue 04:55:42 PM 37.3703 -75.5447 210° Southwest 390 449 28,000 50 Climbing Washington Center
Tue 04:56:42 PM 37.2783 -75.6075 209° Southwest 395 455 28,000  Level Washington Center
Tue 04:57:40 PM 37.1844 -75.6728 209° Southwest 395 455 28,000 -50 Level Washington Center
Tue 04:58:41 PM 37.0864 -75.7428 210° Southwest 400 460 27,900  Descending Washington Center
Tue 04:59:42 PM 36.9944 -75.8078 209° Southwest 400 460 28,000 50 Climbing Washington Center
Tue 05:00:42 PM 36.8881 -75.8803 209° Southwest 400 460 28,000  Level Washington Center
Tue 05:01:40 PM 36.7939 -75.9447 209° Southwest 395 455 28,000 655 Level Washington Center
Tue 05:02:41 PM 36.6956 -76.0117 209° Southwest 400 460 29,300 992 Climbing Washington Center
Tue 05:03:41 PM 36.6036 -76.0808 211° Southwest 400 460 30,000 347 Climbing Washington Center
Tue 05:04:42 PM 36.5072 -76.1475 209° Southwest 400 460 30,000  Level Washington Center
Tue 05:05:40 PM 36.4047 -76.2164 208° Southwest 405 466 30,000  Level Washington Center
Tue 05:06:40 PM 36.3064 -76.2828 209° Southwest 405 466 30,000  Level Washington Center
Tue 05:07:41 PM 36.2078 -76.3514 209° Southwest 405 466 30,000  Level Washington Center
Tue 05:08:42 PM 36.1072 -76.4197 209° Southwest 405 466 30,000  Level Washington Center
Tue 05:09:42 PM 36.0067 -76.4881 209° Southwest 411 473 30,000  Level Washington Center
Tue 05:10:40 PM 35.9058 -76.5589 210° Southwest 416 479 30,000 51 Level Washington Center
Tue 05:11:40 PM 35.8053 -76.6267 209° Southwest 416 479 30,100 1,190 Climbing Washington Center
Tue 05:12:41 PM 35.7067 -76.6894 207° Southwest 416 479 32,400 1,869 Climbing Washington Center
Tue 05:13:42 PM 35.6122 -76.7544 209° Southwest 403 464 33,900 807 Climbing Washington Center
Tue 05:14:40 PM 35.5322 -76.8122 210° Southwest 389 448 34,000 50 Climbing Washington Center
Tue 05:15:41 PM 35.4419 -76.8744 209° Southwest 381 438 34,000  Level Washington Center
Tue 05:16:42 PM 35.3350 -76.9161 198° South 386 444 34,000  Level Washington Center
Tue 05:17:40 PM 35.2303 -76.9575 198° South 397 457 34,000  Level Washington Center
Tue 05:18:40 PM 35.1253 -77.0014 199° South 397 457 34,000  Level Washington Center
Tue 05:19:41 PM 35.0206 -77.0453 199° South 402 463 34,000  Level Washington Center
Tue 05:20:42 PM 34.9156 -77.0864 198° South 407 468 34,000 -50 Level Washington Center
Tue 05:21:40 PM 34.8086 -77.1300 199° South 407 468 33,900  Descending Washington Center
Tue 05:22:42 PM 34.7017 -77.1711 198° South 407 468 34,000 49 Climbing Washington Center
Tue 05:23:42 PM 34.5992 -77.2094 197° South 407 468 34,000  Level Washington Center
Tue 05:24:40 PM 34.4919 -77.2500 197° South 402 463 34,000 -51 Level Washington Center
Tue 05:25:40 PM 34.3850 -77.2933 198° South 407 468 33,900  Descending Washington Center
Tue 05:29:13 PM 33.9881 -77.4453 198° South 415 478 34,000 22 Climbing Jacksonville Center
Tue 05:30:13 PM 33.8769 -77.4872 197° South 397 457 34,000  Level Jacksonville Center
Tue 05:31:13 PM 33.7786 -77.5283 199° South 392 451 34,000  Level Jacksonville Center
Tue 05:32:14 PM 33.6678 -77.5700 197° South 398 458 34,000  Level Jacksonville Center
Tue 05:33:13 PM 33.5467 -77.6147 197° South 387 445 34,000  Level Jacksonville Center
Tue 05:34:13 PM 33.4378 -77.6586 199° South 410 472 34,000  Level Jacksonville Center
Tue 05:35:13 PM 33.3311 -77.6994 198° South 410 472 34,000  Level Jacksonville Center
Tue 05:36:13 PM 33.2200 -77.7383 196° South 410 472 34,000  Level Jacksonville Center
Tue 05:37:13 PM 33.1111 -77.7792 197° South 415 478 34,000  Level Jacksonville Center
Tue 05:38:13 PM 33.0022 -77.8228 199° South 415 478 34,000  Level Jacksonville Center
Tue 05:39:13 PM 32.8933 -77.8658 198° South 415 478 34,000 -50 Level Jacksonville Center
Tue 05:40:13 PM 32.7819 -77.9017 195° South 415 478 33,900  Descending Jacksonville Center
Tue 05:41:13 PM 32.6731 -77.9447 198° South 415 478 34,000  Climbing Jacksonville Center
Tue 05:42:13 PM 32.5639 -77.9828 196° South 415 478 33,900  Descending Jacksonville Center
Tue 05:43:13 PM 32.4550 -78.0281 199° South 415 478 34,000 50 Climbing Jacksonville Center
Tue 05:44:13 PM 32.3461 -78.0683 197° South 415 478 34,000 -50 Level Jacksonville Center
Tue 05:45:13 PM 32.2389 -78.1058 196° South 415 478 33,900 -50 Descending Jacksonville Center
Tue 05:46:13 PM 32.1275 -78.1436 196° South 415 478 33,900 50 Level Jacksonville Center
Tue 05:47:13 PM 32.0186 -78.1858 198° South 415 478 34,000 50 Climbing Jacksonville Center
Tue 05:48:13 PM 31.9075 -78.2283 198° South 415 478 34,000  Level Jacksonville Center
Tue 05:49:13 PM 31.7964 -78.2778 201° Southwest 415 478 34,000 -50 Level Jacksonville Center
Tue 05:50:13 PM 31.6872 -78.3150 196° South 422 486 33,900  Descending Jacksonville Center
Tue 05:51:13 PM 31.5739 -78.3572 198° South 417 480 34,000 50 Climbing Jacksonville Center
Tue 05:52:13 PM 31.4625 -78.3967 197° South 417 480 34,000  Level Jacksonville Center
Tue 05:53:14 PM 31.3472 -78.4411 198° South 424 488 34,000  Level Jacksonville Center
Tue 05:54:13 PM 31.2339 -78.4806 197° South 430 495 34,000  Level Jacksonville Center
Tue 05:55:13 PM 31.1225 -78.5222 198° South 435 501 34,000  Level Jacksonville Center
Tue 05:56:13 PM 31.0008 -78.5642 196° South 442 509 34,000  Level Jacksonville Center
Tue 05:57:13 PM 30.8894 -78.6056 198° South 436 502 34,000 -50 Level Jacksonville Center
Tue 05:58:13 PM 30.7761 -78.6469 197° South 429 494 33,900  Descending Jacksonville Center
Tue 05:59:13 PM 30.6564 -78.6861 196° South 441 507 34,000 42 Climbing Jacksonville Center
Tue 06:00:36 PM 30.5036 -78.7211 191° South 406 467 34,000  Level Miami Center
Tue 06:01:36 PM 30.3825 -78.7406 188° South 428 493 34,000 -50 Level Miami Center
Tue 06:02:36 PM 30.2614 -78.7625 189° South 437 503 33,900  Descending Miami Center
Tue 06:03:36 PM 30.1422 -78.7819 188° South 442 509 34,000  Climbing Miami Center
Tue 06:04:36 PM 30.0233 -78.8014 188° South 444 511 33,900 -50 Descending Miami Center
Tue 06:05:36 PM 29.9144 -78.8233 190° South 449 517 33,900 50 Level Miami Center
Tue 06:06:36 PM 29.7953 -78.8428 188° South 442 509 34,000 50 Climbing Miami Center
Tue 06:07:36 PM 29.6783 -78.8619 188° South 442 509 34,000  Level Miami Center
Tue 06:08:36 PM 29.5592 -78.8767 186° South 437 503 34,000 -50 Level Miami Center
Tue 06:09:36 PM 29.4464 -78.8936 187° South 431 496 33,900 -50 Descending Miami Center
Tue 06:10:36 PM 29.3231 -78.9056 185° South 432 497 33,900 50 Level Miami Center
Tue 06:11:36 PM 29.1997 -78.9200 186° South 432 497 34,000  Climbing Miami Center
Tue 06:12:36 PM 29.0828 -78.9392 188° South 432 497 33,900  Descending Miami Center
Tue 06:13:36 PM 28.9656 -78.9558 187° South 432 497 34,000 50 Climbing Miami Center
Tue 06:14:36 PM 28.8381 -78.9725 187° South 426 490 34,000  Level Miami Center
Tue 06:15:36 PM 28.7169 -78.9889 187° South 431 496 34,000  Level Miami Center
Tue 06:16:36 PM 28.5978 -79.0033 186° South 437 503 34,000 -50 Level Miami Center
Tue 06:17:36 PM 28.4786 -79.0175 186° South 442 509 33,900 -50 Descending Miami Center
Tue 06:18:36 PM 28.3592 -79.0342 187° South 437 503 33,900 50 Level Miami Center
Tue 06:19:36 PM 28.2439 -79.0650 193° South 431 496 34,000  Climbing Miami Center
Tue 06:20:36 PM 28.1328 -79.1006 196° South 424 488 33,900  Descending Miami Center
Tue 06:21:36 PM 28.0217 -79.1336 195° South 424 488 34,000 50 Climbing Miami Center
Tue 06:22:36 PM 27.9064 -79.1689 195° South 419 482 34,000  Level Miami Center
Tue 06:23:36 PM 27.7950 -79.2042 196° South 419 482 34,000  Level Miami Center
Tue 06:24:36 PM 27.6817 -79.2369 194° South 419 482 34,000 -400 Level Miami Center
Tue 06:25:36 PM 27.5683 -79.2722 195° South 419 482 33,200 -1,700 Descending Miami Center
Tue 06:26:36 PM 27.4656 -79.3050 196° South 419 482 30,600 -2,600 Descending Miami Center
Tue 06:27:36 PM 27.3564 -79.3447 198° South 419 482 28,000 -3,000 Descending Miami Center
Tue 06:28:36 PM 27.2444 -79.4125 208° Southwest 426 490 24,600 -1,950 Descending Miami Center
Tue 06:29:36 PM 27.1619 -79.4644 209° Southwest 426 490 24,100 -300 Descending Miami Center
Tue 06:30:36 PM 27.0397 -79.5364 208° Southwest 426 490 24,000 -500 Descending Miami Center
Tue 06:31:36 PM 26.9489 -79.5925 209° Southwest 421 484 23,100 -950 Descending Miami Center
Tue 06:32:36 PM 26.8472 -79.6553 209° Southwest 426 490 22,100 -1,050 Descending Miami Center
Tue 06:33:36 PM 26.7394 -79.7225 209° Southwest 412 474 21,000 -1,350 Descending Miami Center
Tue 06:34:36 PM 26.6422 -79.7828 209° Southwest 412 474 19,400 -2,000 Descending Miami Center
Tue 06:35:36 PM 26.5533 -79.8364 208° Southwest 398 458 17,000 -2,364 Descending Miami Center
Tue 06:35:42 PM 26.5428 -79.8408 201° Southwest 348 400 16,800 -1,395 Descending Miami Center
Tue 06:36:19 PM 26.4900 -79.8719 208° Southwest 332 382 16,000 -889 Descending Miami Center
Tue 06:36:36 PM 26.4689 -79.8878 214° Southwest 374 430 16,000  Level Miami Center
Tue 06:37:20 PM 26.4075 -79.9233 207° Southwest 330 380 16,000 -400 Level Miami Center
Tue 06:37:36 PM 26.3906 -79.9344 210° Southwest 349 402 15,600 -1,967 Descending Miami Center
Tue 06:38:21 PM 26.3272 -79.9697 207° Southwest 329 379 14,000 -2,200 Descending Miami Center
Tue 06:38:36 PM 26.3081 -79.9808 207° Southwest 335 386 13,400 -2,459 Descending Miami Center
Tue 06:39:22 PM 26.2383 -80.0183 206° Southwest 330 380 11,500 -2,400 Descending Miami Center
Tue 06:39:36 PM 26.2236 -80.0250 202° Southwest 335 386 11,000 -1,475 Descending Miami Center
Tue 06:40:23 PM 26.1500 -80.0439 193° South 329 379 10,000 -1,100 Descending Miami Center
Tue 06:40:36 PM 26.1375 -80.0506 206° Southwest 329 379 9,900 -493 Descending Miami Center
Tue 06:41:36 PM 26.0597 -80.0692 192° South 309 356 9,400 -835 Descending Miami Center
Tue 06:42:31 PM 25.9925 -80.0881 194° South 260 299 8,300 -1,200 Descending Miami Center
Tue 06:42:36 PM 25.9861 -80.0903 197° South 291 335 8,200 -277 Descending Miami Center
Tue 06:43:36 PM 25.9392 -80.1375 222° Southwest 239 275 8,000 -100 Descending Miami Center
Tue 06:44:36 PM 25.9106 -80.2036 244° Southwest 239 275 8,000  Level Miami Center
Tue 06:44:38 PM 25.9064 -80.2058 206° Southwest 235 270 8,000 -1,000 Level Miami Center
Tue 06:45:36 PM 25.8861 -80.2700 251° West 239 275 7,000 -1,377 Descending Miami Center
Tue 06:46:40 PM 25.9072 -80.3422 288° West 228 262 5,200 -1,440 Descending Miami Center
Tue 06:47:41 PM 25.9286 -80.4075 290° West 226 260 4,000 -787 Descending Miami Center
Tue 06:48:42 PM 25.9333 -80.4700 275° West 199 229 3,600 -492 Descending Miami Center
Tue 06:49:43 PM 25.9036 -80.4944 216° Southwest 187 215 3,000 -344 Descending Miami Center
Tue 06:50:44 PM 25.8692 -80.4497 131° Southeast 193 222 2,900 -590 Descending Miami Center
Tue 06:51:45 PM 25.8453 -80.3958 116° Southeast 184 212 1,800 -931 Descending Miami Center
Tue 06:52:40 PM 25.8253 -80.3628 124° Southeast 141 162 1,100 -724 Descending Miami Center
Tue 06:53:41 PM 25.8075 -80.3231 116° Southeast 135 155 400 -689 Descending Miami Center

Login

Don't have an account? Register now (free) for customized features, flight alerts, and more!